Time;durP1;ratioP1;P1;durP2;ratioP2;P2;SDS_P1;SDS_P2;PMS_P1;PMS_P2;Temp;Humidity;BMP_temperature;BMP_pressure;BME280_temperature;BME280_humidity;BME280_pressure;Samples;Min_cycle;Max_cycle;Signal;HPM_P1;HPM_P2
2021/06/15 00:00:12;;;;;;;6.03;3.35;;;;;;;16.06;75.14;95816.78;1032664;28;20105;-78
2021/06/15 00:00:42;;;;;;;8.80;3.20;;;;;;;15.89;75.09;95792.34;1036361;28;20447;-79
2021/06/15 00:01:13;;;;;;;7.55;3.17;;;;;;;15.90;75.04;95790.47;1032312;28;20101;-79
2021/06/15 00:01:43;;;;;;;6.93;3.25;;;;;;;15.99;75.07;95811.44;1024505;29;20488;-79
2021/06/15 00:02:14;;;;;;;6.45;2.95;;;;;;;16.00;74.92;95813.06;1036608;28;20111;-79
2021/06/15 00:02:45;;;;;;;4.93;3.20;;;;;;;15.95;75.01;95809.41;1036297;28;20029;-79
2021/06/15 00:03:16;;;;;;;5.93;3.05;;;;;;;16.02;74.92;95808.34;1044987;28;20017;-80
2021/06/15 00:03:46;;;;;;;6.72;3.17;;;;;;;15.98;74.51;95795.59;1036315;28;20487;-79
2021/06/15 00:04:17;;;;;;;6.78;2.97;;;;;;;16.02;74.73;95803.00;1032389;28;20030;-79
2021/06/15 00:04:48;;;;;;;7.95;3.60;;;;;;;16.10;74.52;95814.50;1032333;28;20025;-80
2021/06/15 00:05:18;;;;;;;6.50;3.33;;;;;;;15.89;75.10;95781.63;1028119;28;20110;-80
2021/06/15 00:05:49;;;;;;;5.53;3.00;;;;;;;15.93;74.84;95798.91;1036412;28;20049;-78
2021/06/15 00:06:20;;;;;;;8.00;3.17;;;;;;;15.96;74.48;95797.66;1040673;28;20057;-79
2021/06/15 00:06:50;;;;;;;5.13;3.08;;;;;;;15.97;74.85;95797.44;1027939;28;20362;-80
2021/06/15 00:07:21;;;;;;;5.57;3.00;;;;;;;15.89;74.89;95796.88;1032257;28;20073;-80
2021/06/15 00:07:51;;;;;;;6.82;3.42;;;;;;;15.88;75.02;95800.56;1040501;28;20045;-79
2021/06/15 00:08:22;;;;;;;7.88;3.20;;;;;;;15.97;74.80;95808.16;1031866;28;20121;-79
2021/06/15 00:08:52;;;;;;;4.25;2.58;;;;;;;15.92;74.35;95797.28;1036179;28;20093;-77
2021/06/15 00:09:23;;;;;;;5.35;3.00;;;;;;;15.97;74.64;95793.94;1040295;28;20100;-79
2021/06/15 00:09:54;;;;;;;7.68;3.22;;;;;;;16.10;74.48;95798.41;1036521;28;20105;-79
2021/06/15 00:10:24;;;;;;;4.63;3.08;;;;;;;16.14;73.38;95797.75;1032184;28;20523;-78
2021/06/15 00:10:55;;;;;;;8.25;3.28;;;;;;;16.03;73.68;95793.09;1032106;28;20405;-77
2021/06/15 00:11:26;;;;;;;6.93;3.10;;;;;;;16.00;73.63;95788.97;1031749;28;20117;-78
2021/06/15 00:11:56;;;;;;;7.80;3.45;;;;;;;16.03;73.12;95788.53;1031677;28;20113;-78
2021/06/15 00:12:27;;;;;;;4.97;2.80;;;;;;;16.06;73.02;95791.81;1036041;28;20109;-76
2021/06/15 00:12:57;;;;;;;5.78;3.15;;;;;;;16.08;73.10;95795.94;1031975;28;20117;-76
2021/06/15 00:13:28;;;;;;;7.97;3.38;;;;;;;16.15;73.22;95799.41;1036378;28;20084;-79
2021/06/15 00:13:58;;;;;;;8.25;3.50;;;;;;;16.16;73.70;95797.53;1024190;29;20019;-77
2021/06/15 00:14:29;;;;;;;7.72;3.75;;;;;;;16.09;73.69;95797.56;1036547;28;20072;-78
2021/06/15 00:15:00;;;;;;;8.60;3.90;;;;;;;16.18;73.95;95803.53;1036865;28;20029;-77
2021/06/15 00:15:30;;;;;;;6.65;3.50;;;;;;;16.13;74.33;95804.16;1036879;28;20088;-78
2021/06/15 00:16:01;;;;;;;6.53;3.55;;;;;;;16.10;74.40;95796.56;1036824;28;20022;-78
2021/06/15 00:16:32;;;;;;;7.45;3.15;;;;;;;16.07;74.75;95793.47;1032771;28;20026;-78
2021/06/15 00:17:04;;;;;;;6.65;3.78;;;;;;;16.13;74.55;95801.50;1041004;28;20344;-78
2021/06/15 00:17:34;;;;;;;5.85;3.22;;;;;;;16.00;75.11;95777.44;1036875;28;20465;-79
2021/06/15 00:18:05;;;;;;;8.88;3.05;;;;;;;16.02;75.16;95792.28;1036701;28;20072;-77
2021/06/15 00:18:36;;;;;;;7.95;3.20;;;;;;;15.98;75.34;95784.88;1032609;28;20152;-80
2021/06/15 00:19:06;;;;;;;9.27;4.00;;;;;;;16.06;75.48;95805.22;1037015;28;20030;-78
2021/06/15 00:19:37;;;;;;;6.72;3.15;;;;;;;15.89;75.38;95776.25;1045117;28;20112;-78
2021/06/15 00:20:08;;;;;;;6.55;3.45;;;;;;;16.00;75.71;95799.69;1036974;28;20018;-80
2021/06/15 00:20:39;;;;;;;6.32;3.13;;;;;;;15.74;75.67;95759.59;1032774;28;20092;-80
2021/06/15 00:21:09;;;;;;;7.50;2.92;;;;;;;16.00;75.59;95799.69;1041069;28;20049;-79
2021/06/15 00:21:40;;;;;;;5.35;3.08;;;;;;;16.01;76.05;95797.84;1036933;28;20029;-79
2021/06/15 00:22:10;;;;;;;8.73;3.50;;;;;;;15.94;75.51;95787.16;1032762;28;20022;-78
2021/06/15 00:22:41;;;;;;;7.70;3.42;;;;;;;15.99;75.79;95799.91;1032883;28;20097;-78
2021/06/15 00:23:12;;;;;;;9.27;3.75;;;;;;;16.08;75.66;95808.53;1024783;29;20015;-77
2021/06/15 00:23:43;;;;;;;5.82;3.28;;;;;;;15.96;75.71;95787.75;1040659;28;20014;-78
2021/06/15 00:24:13;;;;;;;5.68;3.10;;;;;;;15.96;75.89;95803.81;1040856;28;20024;-78
2021/06/15 00:24:44;;;;;;;6.43;3.22;;;;;;;15.97;75.72;95810.00;1032688;28;20049;-78
2021/06/15 00:25:15;;;;;;;9.23;3.42;;;;;;;15.94;75.92;95805.09;1032513;28;20050;-79
2021/06/15 00:25:45;;;;;;;10.48;3.75;;;;;;;15.83;75.98;95785.97;1028550;28;20105;-77
2021/06/15 00:26:16;;;;;;;6.25;3.17;;;;;;;15.91;76.21;95800.97;1040837;28;20021;-79
2021/06/15 00:26:47;;;;;;;6.55;3.17;;;;;;;15.89;75.88;95803.03;1040675;28;20017;-78
2021/06/15 00:27:17;;;;;;;6.47;3.00;;;;;;;15.87;76.20;95805.13;1028535;28;20117;-78
2021/06/15 00:27:48;;;;;;;6.70;3.03;;;;;;;15.83;76.01;95793.16;1032424;28;20050;-78
2021/06/15 00:28:19;;;;;;;5.85;2.88;;;;;;;15.80;76.15;95780.22;1032648;28;20053;-78
2021/06/15 00:28:50;;;;;;;7.57;3.47;;;;;;;15.85;76.23;95796.47;1028521;28;20069;-77
2021/06/15 00:29:20;;;;;;;11.07;3.53;;;;;;;15.79;76.51;95794.63;1024788;29;20073;-79
2021/06/15 00:29:51;;;;;;;8.02;3.53;;;;;;;15.88;76.73;95812.09;1032777;28;20528;-78
2021/06/15 00:30:22;;;;;;;7.88;3.58;;;;;;;15.89;76.64;95799.56;1040745;28;20112;-80
2021/06/15 00:30:52;;;;;;;6.63;3.50;;;;;;;15.80;76.68;95793.63;1036686;28;20018;-80
2021/06/15 00:31:24;;;;;;;5.88;3.10;;;;;;;15.88;77.15;95801.38;1036699;28;20180;-80
2021/06/15 00:31:55;;;;;;;8.18;3.47;;;;;;;15.79;77.35;95787.41;1036782;28;20033;-79
2021/06/15 00:32:25;;;;;;;5.05;3.22;;;;;;;15.80;77.47;95799.78;1041015;28;20048;-79
2021/06/15 00:32:56;;;;;;;4.97;3.30;;;;;;;15.77;77.62;95802.88;1040648;28;20013;-80
2021/06/15 00:33:27;;;;;;;8.95;3.53;;;;;;;15.79;78.08;95805.34;1032684;28;20060;-80
2021/06/15 00:33:57;;;;;;;5.47;3.20;;;;;;;15.67;78.29;95785.59;1028595;28;20022;-78
2021/06/15 00:34:28;;;;;;;7.57;3.30;;;;;;;15.65;78.87;95797.31;1032648;28;20105;-80
2021/06/15 00:34:58;;;;;;;5.15;3.28;;;;;;;15.54;78.88;95781.13;1032397;28;20515;-79
2021/06/15 00:35:29;;;;;;;5.13;3.28;;;;;;;15.63;79.31;95801.25;1036746;28;20052;-79
2021/06/15 00:36:00;;;;;;;6.22;3.28;;;;;;;15.59;79.31;95787.47;1036516;28;20571;-78
2021/06/15 00:36:30;;;;;;;7.82;3.33;;;;;;;15.67;79.68;95804.34;1036786;28;20148;-79
2021/06/15 00:37:01;;;;;;;7.40;3.53;;;;;;;15.49;79.56;95776.41;1028607;28;20042;-80
2021/06/15 00:37:31;;;;;;;8.48;3.17;;;;;;;15.62;79.60;95795.09;1033030;28;20389;-79
2021/06/15 00:38:02;;;;;;;8.15;3.90;;;;;;;15.45;79.81;95770.63;1036716;28;20134;-79
2021/06/15 00:38:32;;;;;;;7.85;3.67;;;;;;;15.57;79.78;95791.38;1036647;28;20030;-79
2021/06/15 00:39:03;;;;;;;8.13;3.83;;;;;;;15.62;79.99;95796.94;1032533;28;20049;-79
2021/06/15 00:39:34;;;;;;;9.48;4.13;;;;;;;15.68;80.23;95800.63;1036715;28;20087;-80
2021/06/15 00:40:05;;;;;;;8.65;4.13;;;;;;;15.61;80.43;95801.47;1036274;28;20014;-80
2021/06/15 00:40:36;;;;;;;6.65;3.75;;;;;;;15.56;80.79;95793.25;1032600;28;20015;-80
2021/06/15 00:41:06;;;;;;;9.35;3.72;;;;;;;15.62;81.02;95807.63;1028627;28;20101;-80
2021/06/15 00:41:37;;;;;;;8.68;3.83;;;;;;;15.36;81.12;95766.56;1028716;28;20622;-79
2021/06/15 00:42:08;;;;;;;7.07;3.80;;;;;;;15.45;81.66;95781.34;1032645;28;20050;-78
2021/06/15 00:42:38;;;;;;;10.90;4.20;;;;;;;15.54;82.02;95794.50;1032788;28;20096;-79
2021/06/15 00:43:09;;;;;;;8.20;3.95;;;;;;;15.58;81.93;95801.06;1040793;28;20028;-79
2021/06/15 00:43:39;;;;;;;10.35;3.55;;;;;;;15.56;82.03;95795.13;1036634;28;20508;-80
2021/06/15 00:44:11;;;;;;;8.13;3.53;;;;;;;15.56;81.80;95798.59;1036796;28;20440;-79
2021/06/15 00:44:42;;;;;;;7.88;3.85;;;;;;;15.47;81.77;95789.16;1036715;28;20426;-79
2021/06/15 00:45:14;;;;;;;9.15;3.80;;;;;;;15.42;81.57;95776.41;1036670;28;20152;-79
2021/06/15 00:45:45;;;;;;;10.10;3.50;;;;;;;15.55;81.62;95799.66;1032491;28;20014;-79
2021/06/15 00:46:15;;;;;;;9.38;3.70;;;;;;;15.62;81.54;95804.97;1040780;28;20021;-80
2021/06/15 00:46:46;;;;;;;7.00;3.60;;;;;;;15.48;81.51;95785.44;1032571;28;20535;-79
2021/06/15 00:47:17;;;;;;;7.03;4.00;;;;;;;15.52;81.91;95781.34;1024558;28;20106;-77
2021/06/15 00:47:48;;;;;;;8.57;3.92;;;;;;;15.48;81.89;95789.97;1028385;28;20123;-78
2021/06/15 00:48:25;;;;;;;9.20;3.97;;;;;;;15.50;82.03;95793.25;1032374;28;20030;-79
2021/06/15 00:48:56;;;;;;;9.25;4.15;;;;;;;15.48;82.45;95792.66;1028513;28;20022;-78
2021/06/15 00:49:27;;;;;;;9.32;4.22;;;;;;;15.51;82.29;95803.75;1028592;28;20102;-78
2021/06/15 00:49:58;;;;;;;7.15;3.75;;;;;;;15.46;82.57;95787.50;1032514;28;20026;-78
2021/06/15 00:50:29;;;;;;;13.15;4.25;;;;;;;15.49;82.50;95792.44;1032782;28;20137;-78
2021/06/15 00:51:00;;;;;;;8.27;3.65;;;;;;;15.55;82.57;95802.31;1036523;28;20112;-79
2021/06/15 00:51:30;;;;;;;14.32;4.38;;;;;;;15.54;82.34;95802.53;1040713;28;20052;-79
2021/06/15 00:52:01;;;;;;;6.10;3.72;;;;;;;15.48;82.48;95790.78;1032607;28;20105;-79
2021/06/15 00:52:32;;;;;;;9.13;3.60;;;;;;;15.50;82.41;95794.09;1040604;28;20026;-78
2021/06/15 00:53:03;;;;;;;10.63;4.15;;;;;;;15.45;82.50;95786.69;1040777;28;20021;-79
2021/06/15 00:53:34;;;;;;;8.23;4.05;;;;;;;15.37;81.90;95776.22;1028478;28;20031;-79
2021/06/15 00:54:05;;;;;;;10.38;4.18;;;;;;;15.51;82.20;95802.94;1032794;28;20135;-77
2021/06/15 00:54:35;;;;;;;5.70;3.53;;;;;;;15.41;82.23;95785.50;1048957;28;20509;-80
2021/06/15 00:55:06;;;;;;;7.25;3.60;;;;;;;15.57;82.37;95805.59;1036617;28;20395;-79
2021/06/15 00:55:37;;;;;;;9.27;3.50;;;;;;;15.41;82.09;95773.94;1036848;28;20033;-78
2021/06/15 00:56:08;;;;;;;7.55;3.63;;;;;;;15.43;81.87;95785.25;1036733;28;20041;-79
2021/06/15 00:56:38;;;;;;;6.68;4.05;;;;;;;15.42;81.73;95792.47;1024715;28;20030;-79
2021/06/15 00:57:14;;;;;;;7.22;3.75;;;;;;;15.51;81.32;95800.28;1032796;28;20540;-79
2021/06/15 00:57:45;;;;;;;5.07;3.35;;;;;;;15.41;81.34;95781.97;1040722;28;20017;-80
2021/06/15 00:58:15;;;;;;;6.80;3.53;;;;;;;15.45;80.53;95793.91;1036497;28;20064;-80
2021/06/15 00:58:47;;;;;;;7.30;3.08;;;;;;;15.41;80.85;95785.50;1040724;28;20064;-78
2021/06/15 00:59:18;;;;;;;7.00;3.33;;;;;;;15.42;80.64;95800.50;1024595;29;20780;-77
2021/06/15 00:59:49;;;;;;;9.18;3.63;;;;;;;15.35;80.91;95786.31;1032766;28;20050;-77
2021/06/15 01:00:19;;;;;;;8.40;3.88;;;;;;;15.34;80.97;95779.31;1040675;28;20032;-79
2021/06/15 01:00:51;;;;;;;6.47;3.97;;;;;;;15.27;81.45;95778.50;1036502;28;20454;-77
2021/06/15 01:01:23;;;;;;;9.65;3.78;;;;;;;15.31;82.37;95790.44;1036734;28;20041;-78
2021/06/15 01:01:54;;;;;;;6.50;3.72;;;;;;;15.24;82.39;95778.94;1024638;29;20110;-77
2021/06/15 01:02:24;;;;;;;8.63;4.40;;;;;;;15.24;82.31;95785.09;1032413;28;20057;-77
2021/06/15 01:02:55;;;;;;;8.10;4.07;;;;;;;15.23;82.24;95780.78;1040542;28;20057;-80
2021/06/15 01:03:26;;;;;;;8.95;3.97;;;;;;;15.35;82.36;95796.19;1036746;28;20490;-79
2021/06/15 01:03:57;;;;;;;8.30;3.80;;;;;;;15.21;82.66;95763.31;1040687;28;20032;-81
2021/06/15 01:04:27;;;;;;;9.10;4.00;;;;;;;15.20;82.69;95773.16;1036624;28;20129;-80
2021/06/15 01:05:00;;;;;;;8.35;3.10;;;;;;;15.33;82.51;95795.59;1036513;28;20431;-80
2021/06/15 01:05:30;;;;;;;7.70;3.60;;;;;;;15.23;83.36;95783.44;1028656;28;20486;-78
2021/06/15 01:06:03;;;;;;;7.85;3.75;;;;;;;15.34;83.53;95791.88;1032642;28;20090;-77
2021/06/15 01:06:52;;;;;;;6.45;3.63;;;;;;;15.32;84.57;95796.63;1032586;28;20101;-77
2021/06/15 01:07:45;;;;;;;6.70;3.58;;;;;;;15.27;85.37;95787.38;1028613;28;20023;-79
2021/06/15 01:08:21;;;;;;;8.10;4.03;;;;;;;15.26;85.21;95792.94;1033979;28;20019;-80
2021/06/15 01:08:56;;;;;;;7.32;3.78;;;;;;;15.24;85.15;95795.00;1036821;28;20064;-80
2021/06/15 01:09:35;;;;;;;7.72;4.13;;;;;;;15.22;85.50;95791.69;1040751;28;20025;-80
2021/06/15 01:10:07;;;;;;;6.32;3.47;;;;;;;15.05;84.75;95770.75;1040836;28;20013;-81
2021/06/15 01:11:34;;;;;;;8.02;3.45;;;;;;;15.22;84.82;95792.53;1036610;28;20018;-80
2021/06/15 01:12:23;;;;;;;7.13;3.75;;;;;;;15.15;84.50;95789.03;1028346;28;20420;-78
2021/06/15 01:13:21;;;;;;;8.00;3.45;;;;;;;15.13;84.67;95793.75;1024442;28;20019;-77
2021/06/15 01:14:25;;;;;;;6.10;3.58;;;;;;;15.14;85.14;95799.94;1022417;29;20016;-77
2021/06/15 01:15:22;;;;;;;7.30;3.25;;;;;;;15.07;85.47;95792.75;1028203;28;20380;-78
2021/06/15 01:16:09;;;;;;;7.10;3.50;;;;;;;14.99;85.63;95773.41;1018126;29;20080;-78
2021/06/15 01:17:01;;;;;;;5.63;3.47;;;;;;;15.02;85.67;95781.03;1024533;29;20023;-79
2021/06/15 01:17:53;;;;;;;11.23;3.90;;;;;;;14.84;86.26;95758.44;1020281;29;20020;-78
2021/06/15 01:18:24;;;;;;;8.40;3.50;;;;;;;15.03;86.02;95785.34;1034243;28;20026;-77
2021/06/15 01:19:00;;;;;;;6.47;3.80;;;;;;;14.95;86.47;95772.19;1040889;28;20013;-78
2021/06/15 01:19:55;;;;;;;7.32;3.92;;;;;;;14.98;86.26;95785.97;1033073;28;20071;-77
2021/06/15 01:20:40;;;;;;;6.55;3.53;;;;;;;14.90;86.10;95781.66;1036896;28;20022;-79
2021/06/15 01:21:11;;;;;;;9.38;3.70;;;;;;;14.82;86.61;95765.00;1045239;28;20100;-79
2021/06/15 01:22:07;;;;;;;7.13;3.75;;;;;;;14.96;86.40;95781.84;1032802;28;20113;-78
2021/06/15 01:22:43;;;;;;;7.70;3.60;;;;;;;14.99;86.46;95787.59;1041631;28;20104;-78
2021/06/15 01:23:32;;;;;;;6.78;3.47;;;;;;;14.99;86.39;95784.13;1037083;28;20025;-79
2021/06/15 01:24:04;;;;;;;6.40;3.47;;;;;;;14.84;86.50;95773.66;1042731;28;20091;-78
2021/06/15 01:24:42;;;;;;;7.38;3.38;;;;;;;14.92;86.95;95780.63;1044972;28;20013;-77
2021/06/15 01:25:31;;;;;;;6.88;3.50;;;;;;;14.95;86.77;95778.34;1040384;28;20013;-77
2021/06/15 01:26:46;;;;;;;7.78;4.03;;;;;;;14.93;86.80;95787.63;1032414;28;20046;-77
2021/06/15 01:27:41;;;;;;;6.03;3.65;;;;;;;14.94;86.81;95779.38;1028100;28;20035;-77
2021/06/15 01:28:15;;;;;;;5.53;3.30;;;;;;;14.86;86.87;95769.72;1036271;28;20401;-80
2021/06/15 01:28:48;;;;;;;7.43;4.10;;;;;;;14.88;87.15;95786.38;1028555;28;20023;-77
2021/06/15 01:29:22;;;;;;;6.28;3.40;;;;;;;14.83;87.57;95777.34;1032481;28;20372;-78
2021/06/15 01:29:52;;;;;;;5.43;3.50;;;;;;;14.93;87.18;95783.09;1036758;28;20053;-77
2021/06/15 01:30:23;;;;;;;9.50;3.90;;;;;;;14.90;87.59;95778.16;1032482;28;20032;-79
2021/06/15 01:31:15;;;;;;;6.43;3.70;;;;;;;14.90;87.70;95787.00;1024534;29;20023;-78
2021/06/15 01:31:48;;;;;;;8.35;4.22;;;;;;;14.83;87.75;95778.16;1028482;28;20027;-78
2021/06/15 01:32:27;;;;;;;5.15;2.97;;;;;;;14.89;87.62;95776.50;1040894;28;20196;-78
2021/06/15 01:33:01;;;;;;;9.35;3.67;;;;;;;14.87;87.86;95783.91;1045107;28;20024;-77
2021/06/15 01:33:38;;;;;;;7.60;3.83;;;;;;;14.77;87.80;95760.28;1036576;28;20372;-77
2021/06/15 01:34:09;;;;;;;7.85;3.70;;;;;;;14.87;87.70;95784.75;1042467;28;20503;-78
2021/06/15 01:34:42;;;;;;;8.32;3.72;;;;;;;14.77;88.10;95762.13;1038858;28;20032;-78
2021/06/15 01:35:13;;;;;;;7.57;3.88;;;;;;;14.70;87.82;95756.81;1026823;29;20045;-79
2021/06/15 01:35:43;;;;;;;7.75;3.75;;;;;;;14.82;87.98;95776.53;1034843;28;20090;-77
2021/06/15 01:36:15;;;;;;;9.27;3.92;;;;;;;14.83;87.65;95770.13;1034201;28;20026;-79
2021/06/15 01:36:56;;;;;;;9.80;4.18;;;;;;;14.83;87.62;95767.47;1034697;28;20026;-78
2021/06/15 01:37:30;;;;;;;6.82;3.45;;;;;;;14.80;87.57;95767.06;1034716;28;20022;-80
2021/06/15 01:38:13;;;;;;;4.90;3.25;;;;;;;14.80;87.47;95769.72;1030528;28;20532;-78
2021/06/15 01:38:49;;;;;;;7.55;3.67;;;;;;;14.69;87.49;95749.81;1034655;28;20102;-79
2021/06/15 01:39:21;;;;;;;6.18;3.70;;;;;;;14.67;87.78;95751.84;1046293;28;20037;-79
2021/06/15 01:40:17;;;;;;;6.10;3.65;;;;;;;14.66;88.31;95761.75;1036854;28;20129;-80
2021/06/15 01:41:08;;;;;;;5.38;3.17;;;;;;;14.71;88.25;95761.91;1044807;28;20595;-78
2021/06/15 01:41:48;;;;;;;7.25;3.85;;;;;;;14.79;88.45;95776.94;1036617;28;20022;-81
2021/06/15 01:42:36;;;;;;;6.00;3.55;;;;;;;14.68;88.52;95754.34;1024712;28;20037;-80
2021/06/15 01:43:12;;;;;;;6.05;3.33;;;;;;;14.61;88.30;95752.66;1032621;28;20022;-79
2021/06/15 01:43:44;;;;;;;7.25;3.50;;;;;;;14.55;88.62;95740.13;1032579;28;20026;-79
2021/06/15 01:44:15;;;;;;;5.55;3.38;;;;;;;14.68;89.23;95774.88;1036764;28;20526;-79
2021/06/15 01:44:49;;;;;;;8.95;3.63;;;;;;;14.67;88.99;95770.56;1032460;28;20113;-79
2021/06/15 01:45:22;;;;;;;8.60;3.50;;;;;;;14.64;88.98;95762.97;1028466;28;20102;-79
2021/06/15 01:45:52;;;;;;;9.13;3.50;;;;;;;14.68;89.14;95769.53;1040487;28;20031;-79
2021/06/15 01:46:24;;;;;;;6.50;3.45;;;;;;;14.62;89.27;95762.34;1036964;28;20033;-79
2021/06/15 01:47:01;;;;;;;7.35;4.00;;;;;;;14.63;89.39;95774.66;1032370;28;20129;-79
2021/06/15 01:47:32;;;;;;;7.50;3.80;;;;;;;14.58;89.68;95761.06;1044772;28;20375;-79
2021/06/15 01:48:11;;;;;;;7.45;3.80;;;;;;;14.46;89.53;95751.00;1036193;28;20084;-79
2021/06/15 01:48:49;;;;;;;7.32;3.63;;;;;;;14.60;89.72;95769.75;1032636;28;20121;-79
2021/06/15 01:49:19;;;;;;;6.63;3.53;;;;;;;14.57;89.83;95765.59;1044944;28;20032;-79
2021/06/15 01:49:55;;;;;;;8.02;3.53;;;;;;;14.31;90.43;95734.34;1036694;28;20025;-80
2021/06/15 01:50:31;;;;;;;10.35;3.60;;;;;;;14.50;90.55;95772.78;1040629;28;20441;-77
2021/06/15 01:51:04;;;;;;;6.18;3.50;;;;;;;14.55;90.47;95769.50;1032367;28;20033;-78
2021/06/15 01:51:34;;;;;;;6.80;3.65;;;;;;;14.43;90.67;95756.75;1036538;28;20029;-80
2021/06/15 01:52:08;;;;;;;7.32;3.47;;;;;;;14.46;90.67;95761.69;1028318;28;20125;-79
2021/06/15 01:52:39;;;;;;;6.13;3.85;;;;;;;14.37;90.89;95762.94;1040441;28;20029;-77
2021/06/15 01:53:10;;;;;;;6.70;3.50;;;;;;;14.43;91.10;95767.44;1040548;28;20024;-77
2021/06/15 01:54:11;;;;;;;6.50;3.63;;;;;;;14.41;91.09;95763.34;1032680;28;20022;-79
2021/06/15 01:54:42;;;;;;;8.90;3.70;;;;;;;14.37;91.66;95768.28;1035175;28;20076;-79
2021/06/15 01:55:13;;;;;;;7.43;3.80;;;;;;;14.36;91.68;95766.63;1032665;28;20542;-78
2021/06/15 01:55:46;;;;;;;11.52;3.88;;;;;;;14.37;91.50;95762.09;1024570;29;20500;-77
2021/06/15 01:56:16;;;;;;;6.40;3.85;;;;;;;14.37;91.58;95772.78;1032354;28;20014;-77
2021/06/15 01:56:47;;;;;;;5.95;3.40;;;;;;;14.13;91.96;95738.44;1028405;28;20115;-78
2021/06/15 01:57:18;;;;;;;6.75;3.90;;;;;;;14.32;92.17;95762.72;1032344;28;20029;-78
2021/06/15 01:57:49;;;;;;;7.50;3.60;;;;;;;14.26;92.13;95756.31;1032452;28;20054;-79
2021/06/15 01:58:21;;;;;;;9.15;3.78;;;;;;;14.33;91.95;95759.84;1040620;28;20028;-78
2021/06/15 01:58:52;;;;;;;6.68;3.67;;;;;;;14.38;91.70;95761.88;1028383;28;20026;-78
2021/06/15 01:59:24;;;;;;;7.43;3.72;;;;;;;14.29;91.82;95749.75;1036792;28;20095;-77
2021/06/15 01:59:56;;;;;;;10.07;4.25;;;;;;;14.33;92.17;95767.00;1040590;28;20033;-78
2021/06/15 02:00:27;;;;;;;7.60;3.85;;;;;;;14.23;92.01;95753.22;1036539;28;20052;-78
2021/06/15 02:00:58;;;;;;;7.63;3.75;;;;;;;14.19;91.67;95744.00;1028392;28;20031;-78
2021/06/15 02:01:28;;;;;;;6.97;4.07;;;;;;;14.30;91.92;95764.78;1032396;28;20030;-78
2021/06/15 02:01:59;;;;;;;7.30;3.90;;;;;;;14.35;91.84;95765.00;1032319;28;20054;-77
2021/06/15 02:02:29;;;;;;;7.20;4.60;;;;;;;14.36;91.59;95765.81;1032249;28;20121;-77
2021/06/15 02:03:00;;;;;;;8.35;4.30;;;;;;;14.30;91.36;95754.91;1040546;28;20089;-76
2021/06/15 02:03:31;;;;;;;9.10;4.40;;;;;;;14.41;91.30;95758.81;1028252;28;20457;-77
2021/06/15 02:04:02;;;;;;;9.70;4.45;;;;;;;14.38;90.94;95758.41;1040528;28;20117;-77
2021/06/15 02:04:34;;;;;;;8.82;3.92;;;;;;;14.32;91.12;95754.69;1028453;28;20023;-81
2021/06/15 02:05:08;;;;;;;7.00;3.70;;;;;;;14.29;90.99;95757.78;1040536;28;20021;-78
2021/06/15 02:05:46;;;;;;;7.53;4.50;;;;;;;14.09;90.98;95723.84;1032366;28;20419;-78
2021/06/15 02:06:21;;;;;;;9.05;4.55;;;;;;;14.22;91.02;95754.28;1028442;28;20031;-77
2021/06/15 02:06:51;;;;;;;12.20;4.15;;;;;;;14.20;90.94;95748.31;1032404;28;20088;-78
2021/06/15 02:07:32;;;;;;;7.32;4.15;;;;;;;14.22;90.89;95759.63;1024336;28;20544;-77
2021/06/15 02:08:03;;;;;;;9.63;4.57;;;;;;;14.22;91.21;95749.75;1036201;28;20017;-78
2021/06/15 02:08:35;;;;;;;14.35;4.43;;;;;;;14.17;91.12;95748.72;1044739;28;20068;-78
2021/06/15 02:09:06;;;;;;;12.05;4.45;;;;;;;14.26;91.11;95750.16;1036316;28;20084;-78
2021/06/15 02:09:38;;;;;;;10.73;4.32;;;;;;;14.34;91.02;95766.81;1032343;28;20108;-79
2021/06/15 02:10:10;;;;;;;12.25;4.75;;;;;;;14.33;90.89;95759.00;1040362;28;20435;-77
2021/06/15 02:10:41;;;;;;;11.55;4.72;;;;;;;14.24;91.28;95753.03;1028525;28;20522;-80
2021/06/15 02:11:11;;;;;;;10.80;4.72;;;;;;;14.25;91.11;95748.53;1032499;28;20093;-79
2021/06/15 02:11:42;;;;;;;9.52;4.13;;;;;;;14.33;90.92;95759.00;1036562;28;20105;-79
2021/06/15 02:12:14;;;;;;;11.13;4.07;;;;;;;14.21;90.96;95755.28;1032433;28;20101;-78
2021/06/15 02:12:47;;;;;;;9.10;3.88;;;;;;;14.25;91.14;95759.22;1032303;28;20022;-77
2021/06/15 02:13:17;;;;;;;7.15;3.97;;;;;;;14.24;91.02;95746.88;1036429;28;20022;-77
2021/06/15 02:13:48;;;;;;;6.53;3.83;;;;;;;14.30;91.18;95765.59;1028357;28;20023;-78
2021/06/15 02:14:23;;;;;;;8.55;3.92;;;;;;;14.31;91.00;95761.88;1040431;28;20018;-77
2021/06/15 02:14:54;;;;;;;8.23;3.78;;;;;;;14.23;90.76;95743.38;1032337;28;20018;-77
2021/06/15 02:15:26;;;;;;;10.43;4.05;;;;;;;14.21;91.17;95749.94;1028258;28;20099;-78
2021/06/15 02:15:57;;;;;;;11.60;3.63;;;;;;;14.29;90.81;95755.09;1036369;28;20037;-78
2021/06/15 02:16:28;;;;;;;9.25;3.92;;;;;;;14.24;90.92;95747.69;1032422;28;20167;-79
2021/06/15 02:16:59;;;;;;;11.07;3.78;;;;;;;14.20;91.19;95749.13;1028318;28;20123;-77
2021/06/15 02:17:30;;;;;;;14.00;3.70;;;;;;;14.21;91.14;95749.94;1044576;28;20053;-77
2021/06/15 02:18:01;;;;;;;8.48;3.70;;;;;;;14.28;91.24;95758.78;1036236;28;20134;-77
2021/06/15 02:18:32;;;;;;;9.88;4.32;;;;;;;14.23;91.26;95743.38;1028352;28;20026;-78
2021/06/15 02:19:02;;;;;;;10.60;4.32;;;;;;;14.26;91.65;95758.19;1040262;28;20013;-78
2021/06/15 02:19:33;;;;;;;13.02;4.18;;;;;;;14.27;91.82;95757.16;1036209;28;20048;-77
2021/06/15 02:20:05;;;;;;;10.05;3.65;;;;;;;14.01;91.73;95724.03;1039848;28;20021;-77
2021/06/15 02:20:38;;;;;;;9.80;3.90;;;;;;;14.19;91.82;95750.16;1036293;28;20034;-77
2021/06/15 02:21:10;;;;;;;9.57;4.50;;;;;;;14.20;91.37;95751.81;1032001;28;20500;-77
2021/06/15 02:21:40;;;;;;;25.00;6.55;;;;;;;13.89;91.68;95701.63;1040346;28;20017;-79
2021/06/15 02:22:13;;;;;;;33.38;7.53;;;;;;;14.19;92.04;95752.81;1024219;29;20433;-77
2021/06/15 02:22:46;;;;;;;23.70;6.45;;;;;;;14.21;91.93;95753.47;1040265;28;20403;-77
2021/06/15 02:23:21;;;;;;;17.10;5.63;;;;;;;13.98;91.80;95711.09;1032291;28;20022;-77
2021/06/15 02:23:55;;;;;;;8.98;4.10;;;;;;;14.10;91.64;95746.84;1028352;28;20166;-77
2021/06/15 02:24:32;;;;;;;9.45;4.20;;;;;;;14.12;91.82;95738.63;1040330;28;20517;-79
2021/06/15 02:25:03;;;;;;;10.23;4.32;;;;;;;14.16;91.59;95742.56;1036265;28;20144;-77
2021/06/15 02:25:35;;;;;;;8.60;4.00;;;;;;;14.19;91.82;95749.34;1031900;28;20054;-78
2021/06/15 02:26:07;;;;;;;11.45;4.03;;;;;;;14.06;91.97;95744.81;1036526;28;20026;-77
2021/06/15 02:26:38;;;;;;;8.27;3.88;;;;;;;14.10;92.15;95746.03;1032153;28;20022;-79
2021/06/15 02:27:10;;;;;;;7.57;3.72;;;;;;;14.14;92.38;95765.97;1032196;28;20054;-77
2021/06/15 02:27:41;;;;;;;10.27;4.43;;;;;;;14.14;92.18;95750.78;1036321;28;20026;-77
2021/06/15 02:28:12;;;;;;;12.10;4.25;;;;;;;14.14;92.14;95755.28;1032220;28;20030;-79
2021/06/15 02:28:42;;;;;;;8.32;3.58;;;;;;;14.17;91.93;95751.41;1032178;28;20062;-77
2021/06/15 02:29:13;;;;;;;9.10;4.15;;;;;;;14.10;92.45;95757.53;1028181;28;20081;-77
2021/06/15 02:29:43;;;;;;;8.25;3.80;;;;;;;14.06;92.40;95745.63;1032120;28;20097;-77
2021/06/15 02:30:14;;;;;;;5.45;3.85;;;;;;;14.11;92.45;95758.38;1036238;28;20108;-76
2021/06/15 02:30:45;;;;;;;7.35;3.38;;;;;;;14.11;92.46;95758.38;1036354;28;20017;-77
2021/06/15 02:31:22;;;;;;;6.80;3.63;;;;;;;14.08;92.52;95759.59;1036320;28;20573;-77
2021/06/15 02:31:56;;;;;;;6.50;3.70;;;;;;;14.17;92.31;95762.06;1032198;28;20333;-77
2021/06/15 02:32:28;;;;;;;6.32;3.40;;;;;;;14.19;91.73;95760.84;1032140;28;20026;-76
2021/06/15 02:33:26;;;;;;;7.50;3.70;;;;;;;14.12;92.30;95760.00;1028508;28;20471;-78
2021/06/15 02:33:57;;;;;;;8.50;3.42;;;;;;;14.13;91.97;95757.13;1040445;28;20507;-78
2021/06/15 02:34:28;;;;;;;7.93;4.35;;;;;;;14.17;91.92;95760.22;1036593;28;20041;-78
2021/06/15 02:35:00;;;;;;;9.30;3.95;;;;;;;14.06;91.57;95737.59;1032321;28;20018;-78
2021/06/15 02:35:31;;;;;;;6.38;3.95;;;;;;;14.19;91.64;95765.34;1036491;28;20029;-78
2021/06/15 02:36:04;;;;;;;7.10;3.72;;;;;;;14.09;91.54;95753.22;1032258;28;20113;-78
2021/06/15 02:36:36;;;;;;;8.05;3.90;;;;;;;14.14;91.85;95764.13;1036078;28;20018;-78
2021/06/15 02:37:07;;;;;;;10.63;3.80;;;;;;;14.17;91.76;95767.41;1040010;28;20045;-78
2021/06/15 02:37:50;;;;;;;16.55;4.20;;;;;;;14.19;91.91;95770.69;1040339;28;20475;-78
2021/06/15 02:38:30;;;;;;;9.27;4.20;;;;;;;14.06;91.96;95756.31;1032161;28;20131;-78